sensor_id;sensor_type;location;lat;lon;timestamp;P1;durP1;ratioP1;P2;durP2;ratioP2
13234;SDS011;6683;48.506;9.050;2022-09-12T00:01:16;4.23;;;3.33;;
13234;SDS011;6683;48.506;9.050;2022-09-12T00:04:20;4.47;;;3.77;;
13234;SDS011;6683;48.506;9.050;2022-09-12T00:07:22;4.80;;;3.73;;
13234;SDS011;6683;48.506;9.050;2022-09-12T00:10:25;5.27;;;3.57;;
13234;SDS011;6683;48.506;9.050;2022-09-12T00:13:29;4.53;;;3.27;;
13234;SDS011;6683;48.506;9.050;2022-09-12T00:16:32;5.60;;;3.47;;
13234;SDS011;6683;48.506;9.050;2022-09-12T00:19:36;3.80;;;3.50;;
13234;SDS011;6683;48.506;9.050;2022-09-12T00:22:38;4.20;;;3.77;;
13234;SDS011;6683;48.506;9.050;2022-09-12T00:25:41;3.70;;;3.30;;
13234;SDS011;6683;48.506;9.050;2022-09-12T00:28:45;4.03;;;3.63;;
13234;SDS011;6683;48.506;9.050;2022-09-12T00:31:48;4.90;;;3.63;;
13234;SDS011;6683;48.506;9.050;2022-09-12T00:34:51;4.80;;;3.87;;
13234;SDS011;6683;48.506;9.050;2022-09-12T00:37:54;5.20;;;3.67;;
13234;SDS011;6683;48.506;9.050;2022-09-12T00:40:56;5.13;;;3.73;;
13234;SDS011;6683;48.506;9.050;2022-09-12T00:44:00;6.00;;;4.00;;
13234;SDS011;6683;48.506;9.050;2022-09-12T00:47:26;4.13;;;3.73;;
13234;SDS011;6683;48.506;9.050;2022-09-12T00:50:30;4.67;;;4.27;;
13234;SDS011;6683;48.506;9.050;2022-09-12T00:53:33;3.87;;;3.57;;
13234;SDS011;6683;48.506;9.050;2022-09-12T00:56:35;3.93;;;3.63;;
13234;SDS011;6683;48.506;9.050;2022-09-12T00:59:43;4.03;;;3.73;;
13234;SDS011;6683;48.506;9.050;2022-09-12T01:02:52;5.27;;;3.77;;
13234;SDS011;6683;48.506;9.050;2022-09-12T01:06:00;4.67;;;3.27;;
13234;SDS011;6683;48.506;9.050;2022-09-12T01:09:11;4.40;;;4.00;;
13234;SDS011;6683;48.506;9.050;2022-09-12T01:12:17;3.93;;;3.53;;
13234;SDS011;6683;48.506;9.050;2022-09-12T01:15:21;5.10;;;3.80;;
13234;SDS011;6683;48.506;9.050;2022-09-12T01:18:27;9.33;;;4.73;;
13234;SDS011;6683;48.506;9.050;2022-09-12T01:21:40;4.67;;;3.90;;
13234;SDS011;6683;48.506;9.050;2022-09-12T01:24:59;11.27;;;4.43;;
13234;SDS011;6683;48.506;9.050;2022-09-12T01:28:17;11.60;;;4.70;;
13234;SDS011;6683;48.506;9.050;2022-09-12T01:31:41;11.90;;;4.83;;
13234;SDS011;6683;48.506;9.050;2022-09-12T01:34:51;4.47;;;4.07;;
13234;SDS011;6683;48.506;9.050;2022-09-12T01:38:03;6.87;;;4.50;;
13234;SDS011;6683;48.506;9.050;2022-09-12T01:41:15;11.23;;;5.37;;
13234;SDS011;6683;48.506;9.050;2022-09-12T01:44:28;6.33;;;4.93;;
13234;SDS011;6683;48.506;9.050;2022-09-12T01:47:44;10.63;;;5.70;;
13234;SDS011;6683;48.506;9.050;2022-09-12T01:50:52;8.27;;;5.03;;
13234;SDS011;6683;48.506;9.050;2022-09-12T01:54:01;12.83;;;5.13;;
13234;SDS011;6683;48.506;9.050;2022-09-12T01:57:12;8.43;;;5.70;;
13234;SDS011;6683;48.506;9.050;2022-09-12T02:00:20;8.10;;;4.83;;
13234;SDS011;6683;48.506;9.050;2022-09-12T02:03:26;6.10;;;5.50;;
13234;SDS011;6683;48.506;9.050;2022-09-12T02:06:34;9.63;;;5.03;;
13234;SDS011;6683;48.506;9.050;2022-09-12T02:09:44;7.70;;;5.13;;
13234;SDS011;6683;48.506;9.050;2022-09-12T02:12:52;6.27;;;4.47;;
13234;SDS011;6683;48.506;9.050;2022-09-12T02:16:03;6.83;;;5.03;;
13234;SDS011;6683;48.506;9.050;2022-09-12T02:19:14;4.67;;;4.17;;
13234;SDS011;6683;48.506;9.050;2022-09-12T02:22:18;5.10;;;4.60;;
13234;SDS011;6683;48.506;9.050;2022-09-12T02:25:25;5.40;;;4.90;;
13234;SDS011;6683;48.506;9.050;2022-09-12T02:28:30;7.13;;;4.87;;
13234;SDS011;6683;48.506;9.050;2022-09-12T02:31:39;10.53;;;5.27;;
13234;SDS011;6683;48.506;9.050;2022-09-12T02:34:50;6.63;;;4.27;;
13234;SDS011;6683;48.506;9.050;2022-09-12T02:38:01;4.73;;;4.33;;
13234;SDS011;6683;48.506;9.050;2022-09-12T02:41:08;6.33;;;4.43;;
13234;SDS011;6683;48.506;9.050;2022-09-12T02:44:11;4.80;;;4.40;;
13234;SDS011;6683;48.506;9.050;2022-09-12T02:47:14;11.50;;;5.20;;
13234;SDS011;6683;48.506;9.050;2022-09-12T02:50:24;6.90;;;4.80;;
13234;SDS011;6683;48.506;9.050;2022-09-12T02:53:27;9.50;;;4.60;;
13234;SDS011;6683;48.506;9.050;2022-09-12T02:56:30;7.00;;;5.10;;
13234;SDS011;6683;48.506;9.050;2022-09-12T02:59:32;8.10;;;4.80;;
13234;SDS011;6683;48.506;9.050;2022-09-12T03:02:39;12.03;;;4.90;;
13234;SDS011;6683;48.506;9.050;2022-09-12T03:06:17;6.30;;;4.80;;
13234;SDS011;6683;48.506;9.050;2022-09-12T03:09:28;12.23;;;4.93;;
13234;SDS011;6683;48.506;9.050;2022-09-12T03:12:41;13.13;;;4.90;;
13234;SDS011;6683;48.506;9.050;2022-09-12T03:15:56;12.63;;;5.37;;
13234;SDS011;6683;48.506;9.050;2022-09-12T03:19:10;34.83;;;5.87;;
13234;SDS011;6683;48.506;9.050;2022-09-12T03:22:27;15.57;;;5.00;;
13234;SDS011;6683;48.506;9.050;2022-09-12T03:25:35;13.30;;;4.87;;
13234;SDS011;6683;48.506;9.050;2022-09-12T03:28:42;18.70;;;5.07;;
13234;SDS011;6683;48.506;9.050;2022-09-12T03:31:47;24.07;;;5.50;;
13234;SDS011;6683;48.506;9.050;2022-09-12T03:34:52;9.53;;;4.50;;
13234;SDS011;6683;48.506;9.050;2022-09-12T03:37:56;17.33;;;5.43;;
13234;SDS011;6683;48.506;9.050;2022-09-12T03:40:58;7.77;;;4.70;;
13234;SDS011;6683;48.506;9.050;2022-09-12T03:44:01;5.93;;;4.77;;
13234;SDS011;6683;48.506;9.050;2022-09-12T03:47:04;4.70;;;4.20;;
13234;SDS011;6683;48.506;9.050;2022-09-12T03:50:07;9.87;;;4.47;;
13234;SDS011;6683;48.506;9.050;2022-09-12T03:53:11;11.07;;;4.53;;
13234;SDS011;6683;48.506;9.050;2022-09-12T03:56:13;20.43;;;4.43;;
13234;SDS011;6683;48.506;9.050;2022-09-12T03:59:16;8.37;;;4.20;;
13234;SDS011;6683;48.506;9.050;2022-09-12T04:02:19;12.37;;;4.77;;
13234;SDS011;6683;48.506;9.050;2022-09-12T04:05:22;8.77;;;3.73;;
13234;SDS011;6683;48.506;9.050;2022-09-12T04:08:27;5.60;;;4.00;;
13234;SDS011;6683;48.506;9.050;2022-09-12T04:11:29;12.00;;;4.90;;
13234;SDS011;6683;48.506;9.050;2022-09-12T04:14:32;28.80;;;5.30;;
13234;SDS011;6683;48.506;9.050;2022-09-12T04:17:35;13.90;;;4.27;;
13234;SDS011;6683;48.506;9.050;2022-09-12T04:20:38;9.37;;;4.63;;
13234;SDS011;6683;48.506;9.050;2022-09-12T04:23:43;7.13;;;4.37;;
13234;SDS011;6683;48.506;9.050;2022-09-12T04:26:46;20.37;;;5.00;;
13234;SDS011;6683;48.506;9.050;2022-09-12T04:29:49;4.13;;;3.83;;
13234;SDS011;6683;48.506;9.050;2022-09-12T04:32:52;16.77;;;4.43;;
13234;SDS011;6683;48.506;9.050;2022-09-12T04:35:54;6.63;;;4.67;;
13234;SDS011;6683;48.506;9.050;2022-09-12T04:38:58;8.80;;;4.37;;
13234;SDS011;6683;48.506;9.050;2022-09-12T04:42:02;8.33;;;4.07;;
13234;SDS011;6683;48.506;9.050;2022-09-12T04:45:05;4.23;;;3.83;;
13234;SDS011;6683;48.506;9.050;2022-09-12T04:48:08;7.33;;;4.30;;
13234;SDS011;6683;48.506;9.050;2022-09-12T04:51:12;6.90;;;4.20;;
13234;SDS011;6683;48.506;9.050;2022-09-12T04:54:18;16.93;;;4.50;;
13234;SDS011;6683;48.506;9.050;2022-09-12T04:57:21;6.97;;;4.23;;
13234;SDS011;6683;48.506;9.050;2022-09-12T05:00:24;7.30;;;4.17;;
13234;SDS011;6683;48.506;9.050;2022-09-12T05:03:28;4.83;;;4.30;;
13234;SDS011;6683;48.506;9.050;2022-09-12T05:06:31;5.67;;;4.03;;
13234;SDS011;6683;48.506;9.050;2022-09-12T05:09:37;6.53;;;4.03;;
13234;SDS011;6683;48.506;9.050;2022-09-12T05:12:39;4.90;;;4.50;;
13234;SDS011;6683;48.506;9.050;2022-09-12T05:15:42;6.83;;;4.67;;
13234;SDS011;6683;48.506;9.050;2022-09-12T05:18:44;15.80;;;4.20;;
13234;SDS011;6683;48.506;9.050;2022-09-12T05:21:48;8.00;;;3.83;;
13234;SDS011;6683;48.506;9.050;2022-09-12T05:24:52;15.70;;;4.10;;
13234;SDS011;6683;48.506;9.050;2022-09-12T05:27:54;43.77;;;5.43;;
13234;SDS011;6683;48.506;9.050;2022-09-12T05:31:00;10.00;;;4.10;;
13234;SDS011;6683;48.506;9.050;2022-09-12T05:34:04;10.93;;;3.70;;
13234;SDS011;6683;48.506;9.050;2022-09-12T05:37:09;19.73;;;3.83;;
13234;SDS011;6683;48.506;9.050;2022-09-12T05:40:13;12.23;;;4.07;;
13234;SDS011;6683;48.506;9.050;2022-09-12T05:43:18;22.47;;;4.40;;
13234;SDS011;6683;48.506;9.050;2022-09-12T05:46:21;11.80;;;4.03;;
13234;SDS011;6683;48.506;9.050;2022-09-12T05:49:25;15.50;;;4.63;;
13234;SDS011;6683;48.506;9.050;2022-09-12T05:52:28;9.87;;;3.63;;
13234;SDS011;6683;48.506;9.050;2022-09-12T05:55:34;11.43;;;3.97;;
13234;SDS011;6683;48.506;9.050;2022-09-12T05:58:37;14.47;;;4.50;;
13234;SDS011;6683;48.506;9.050;2022-09-12T06:01:41;14.50;;;3.73;;
13234;SDS011;6683;48.506;9.050;2022-09-12T06:04:44;29.37;;;4.20;;
13234;SDS011;6683;48.506;9.050;2022-09-12T06:07:47;13.80;;;3.97;;
13234;SDS011;6683;48.506;9.050;2022-09-12T06:10:51;21.50;;;4.23;;
13234;SDS011;6683;48.506;9.050;2022-09-12T06:14:00;20.73;;;3.87;;
13234;SDS011;6683;48.506;9.050;2022-09-12T06:17:04;10.70;;;3.83;;
13234;SDS011;6683;48.506;9.050;2022-09-12T06:20:07;19.47;;;3.30;;
13234;SDS011;6683;48.506;9.050;2022-09-12T06:23:10;17.13;;;3.87;;
13234;SDS011;6683;48.506;9.050;2022-09-12T06:26:14;10.50;;;3.27;;
13234;SDS011;6683;48.506;9.050;2022-09-12T06:29:20;7.53;;;3.33;;
13234;SDS011;6683;48.506;9.050;2022-09-12T06:32:23;15.77;;;3.93;;
13234;SDS011;6683;48.506;9.050;2022-09-12T06:35:25;15.60;;;3.17;;
13234;SDS011;6683;48.506;9.050;2022-09-12T06:38:27;10.60;;;3.30;;
13234;SDS011;6683;48.506;9.050;2022-09-12T06:41:31;16.27;;;4.00;;
13234;SDS011;6683;48.506;9.050;2022-09-12T06:44:34;10.47;;;3.57;;
13234;SDS011;6683;48.506;9.050;2022-09-12T06:47:36;8.23;;;3.30;;
13234;SDS011;6683;48.506;9.050;2022-09-12T06:50:39;18.53;;;3.90;;
13234;SDS011;6683;48.506;9.050;2022-09-12T06:53:41;4.60;;;3.27;;
13234;SDS011;6683;48.506;9.050;2022-09-12T06:56:46;8.57;;;4.03;;
13234;SDS011;6683;48.506;9.050;2022-09-12T06:59:49;4.77;;;3.40;;
13234;SDS011;6683;48.506;9.050;2022-09-12T07:02:52;3.73;;;3.43;;
13234;SDS011;6683;48.506;9.050;2022-09-12T07:05:55;3.80;;;3.20;;
13234;SDS011;6683;48.506;9.050;2022-09-12T07:08:58;4.03;;;3.50;;
13234;SDS011;6683;48.506;9.050;2022-09-12T07:12:08;9.47;;;3.67;;
13234;SDS011;6683;48.506;9.050;2022-09-12T07:15:11;3.50;;;3.20;;
13234;SDS011;6683;48.506;9.050;2022-09-12T07:18:15;6.73;;;3.50;;
13234;SDS011;6683;48.506;9.050;2022-09-12T07:21:18;3.90;;;3.50;;
13234;SDS011;6683;48.506;9.050;2022-09-12T07:24:21;5.27;;;4.27;;
13234;SDS011;6683;48.506;9.050;2022-09-12T07:27:24;4.63;;;3.83;;
13234;SDS011;6683;48.506;9.050;2022-09-12T07:30:27;9.23;;;3.70;;
13234;SDS011;6683;48.506;9.050;2022-09-12T07:33:29;3.93;;;3.53;;
13234;SDS011;6683;48.506;9.050;2022-09-12T07:36:32;4.30;;;3.90;;
13234;SDS011;6683;48.506;9.050;2022-09-12T07:39:35;4.83;;;3.70;;
13234;SDS011;6683;48.506;9.050;2022-09-12T07:42:39;4.67;;;4.23;;
13234;SDS011;6683;48.506;9.050;2022-09-12T07:45:42;4.23;;;3.83;;
13234;SDS011;6683;48.506;9.050;2022-09-12T07:48:44;3.73;;;3.37;;
13234;SDS011;6683;48.506;9.050;2022-09-12T07:51:51;4.10;;;3.80;;
13234;SDS011;6683;48.506;9.050;2022-09-12T07:54:53;4.77;;;4.27;;
13234;SDS011;6683;48.506;9.050;2022-09-12T07:57:57;4.50;;;4.10;;
13234;SDS011;6683;48.506;9.050;2022-09-12T08:01:00;4.23;;;3.93;;
13234;SDS011;6683;48.506;9.050;2022-09-12T08:04:04;5.07;;;4.57;;
13234;SDS011;6683;48.506;9.050;2022-09-12T08:07:07;4.77;;;4.37;;
13234;SDS011;6683;48.506;9.050;2022-09-12T08:10:10;4.27;;;3.97;;
13234;SDS011;6683;48.506;9.050;2022-09-12T08:13:14;4.73;;;4.33;;
13234;SDS011;6683;48.506;9.050;2022-09-12T08:16:17;4.37;;;3.97;;
13234;SDS011;6683;48.506;9.050;2022-09-12T08:19:21;4.63;;;4.23;;
13234;SDS011;6683;48.506;9.050;2022-09-12T08:22:23;4.77;;;4.37;;
13234;SDS011;6683;48.506;9.050;2022-09-12T08:25:26;5.27;;;4.87;;
13234;SDS011;6683;48.506;9.050;2022-09-12T08:28:30;5.53;;;5.03;;
13234;SDS011;6683;48.506;9.050;2022-09-12T08:31:35;5.30;;;4.80;;
13234;SDS011;6683;48.506;9.050;2022-09-12T08:34:38;5.47;;;4.97;;
13234;SDS011;6683;48.506;9.050;2022-09-12T08:37:40;4.77;;;4.37;;
13234;SDS011;6683;48.506;9.050;2022-09-12T08:40:44;5.20;;;4.70;;
13234;SDS011;6683;48.506;9.050;2022-09-12T08:43:56;5.67;;;4.83;;
13234;SDS011;6683;48.506;9.050;2022-09-12T08:47:26;4.93;;;4.53;;
13234;SDS011;6683;48.506;9.050;2022-09-12T08:50:32;5.67;;;5.17;;
13234;SDS011;6683;48.506;9.050;2022-09-12T08:53:34;5.90;;;5.40;;
13234;SDS011;6683;48.506;9.050;2022-09-12T08:56:37;5.93;;;5.43;;
13234;SDS011;6683;48.506;9.050;2022-09-12T08:59:41;5.87;;;5.37;;
13234;SDS011;6683;48.506;9.050;2022-09-12T09:06:48;5.07;;;4.67;;
13234;SDS011;6683;48.506;9.050;2022-09-12T09:10:10;5.20;;;4.80;;
13234;SDS011;6683;48.506;9.050;2022-09-12T09:13:30;4.90;;;4.43;;
13234;SDS011;6683;48.506;9.050;2022-09-12T09:17:08;4.65;;;4.25;;
13234;SDS011;6683;48.506;9.050;2022-09-12T09:20:16;4.90;;;4.50;;
13234;SDS011;6683;48.506;9.050;2022-09-12T09:23:29;5.20;;;4.32;;
13234;SDS011;6683;48.506;9.050;2022-09-12T09:26:38;4.38;;;4.03;;
13234;SDS011;6683;48.506;9.050;2022-09-12T09:29:47;4.18;;;3.78;;
13234;SDS011;6683;48.506;9.050;2022-09-12T09:32:57;3.70;;;3.40;;
13234;SDS011;6683;48.506;9.050;2022-09-12T09:36:05;3.97;;;3.67;;
13234;SDS011;6683;48.506;9.050;2022-09-12T09:39:25;3.55;;;3.25;;
13234;SDS011;6683;48.506;9.050;2022-09-12T09:42:40;3.25;;;2.97;;
13234;SDS011;6683;48.506;9.050;2022-09-12T09:45:53;3.30;;;3.00;;
13234;SDS011;6683;48.506;9.050;2022-09-12T09:48:58;3.03;;;2.70;;
13234;SDS011;6683;48.506;9.050;2022-09-12T09:52:03;3.13;;;2.83;;
13234;SDS011;6683;48.506;9.050;2022-09-12T09:55:09;2.50;;;2.25;;
13234;SDS011;6683;48.506;9.050;2022-09-12T09:58:26;3.40;;;2.47;;
13234;SDS011;6683;48.506;9.050;2022-09-12T10:01:30;3.60;;;2.15;;
13234;SDS011;6683;48.506;9.050;2022-09-12T10:04:35;2.40;;;2.28;;
13234;SDS011;6683;48.506;9.050;2022-09-12T10:07:48;2.53;;;2.33;;
13234;SDS011;6683;48.506;9.050;2022-09-12T10:10:53;2.13;;;2.03;;
13234;SDS011;6683;48.506;9.050;2022-09-12T10:13:58;2.17;;;2.00;;
13234;SDS011;6683;48.506;9.050;2022-09-12T10:17:01;2.47;;;2.00;;
13234;SDS011;6683;48.506;9.050;2022-09-12T10:20:31;2.05;;;1.95;;
13234;SDS011;6683;48.506;9.050;2022-09-12T10:23:37;2.00;;;1.90;;
13234;SDS011;6683;48.506;9.050;2022-09-12T10:26:40;1.88;;;1.77;;
13234;SDS011;6683;48.506;9.050;2022-09-12T10:29:47;1.90;;;1.80;;
13234;SDS011;6683;48.506;9.050;2022-09-12T10:32:55;2.05;;;1.92;;
13234;SDS011;6683;48.506;9.050;2022-09-12T10:36:08;1.80;;;1.70;;
13234;SDS011;6683;48.506;9.050;2022-09-12T10:39:11;2.00;;;1.90;;
13234;SDS011;6683;48.506;9.050;2022-09-12T10:45:48;1.80;;;1.70;;
13234;SDS011;6683;48.506;9.050;2022-09-12T10:48:51;1.70;;;1.60;;
13234;SDS011;6683;48.506;9.050;2022-09-12T10:52:16;1.95;;;1.85;;
13234;SDS011;6683;48.506;9.050;2022-09-12T10:55:24;1.77;;;1.58;;
13234;SDS011;6683;48.506;9.050;2022-09-12T10:58:37;1.70;;;1.60;;
13234;SDS011;6683;48.506;9.050;2022-09-12T11:02:08;1.70;;;1.60;;
13234;SDS011;6683;48.506;9.050;2022-09-12T11:05:24;1.40;;;1.40;;
13234;SDS011;6683;48.506;9.050;2022-09-12T11:08:45;1.55;;;1.45;;
13234;SDS011;6683;48.506;9.050;2022-09-12T11:12:02;1.58;;;1.48;;
13234;SDS011;6683;48.506;9.050;2022-09-12T11:15:15;1.60;;;1.50;;
13234;SDS011;6683;48.506;9.050;2022-09-12T11:18:41;1.60;;;1.50;;
13234;SDS011;6683;48.506;9.050;2022-09-12T11:22:30;1.48;;;1.38;;
13234;SDS011;6683;48.506;9.050;2022-09-12T11:25:45;1.73;;;1.63;;
13234;SDS011;6683;48.506;9.050;2022-09-12T11:28:54;1.77;;;1.67;;
13234;SDS011;6683;48.506;9.050;2022-09-12T11:32:21;1.67;;;1.58;;
13234;SDS011;6683;48.506;9.050;2022-09-12T11:35:52;1.80;;;1.70;;
13234;SDS011;6683;48.506;9.050;2022-09-12T11:39:09;1.60;;;1.50;;
13234;SDS011;6683;48.506;9.050;2022-09-12T11:42:16;1.40;;;1.30;;
13234;SDS011;6683;48.506;9.050;2022-09-12T11:45:27;1.42;;;1.27;;
13234;SDS011;6683;48.506;9.050;2022-09-12T11:48:37;2.17;;;1.60;;
13234;SDS011;6683;48.506;9.050;2022-09-12T11:51:48;1.70;;;1.60;;
13234;SDS011;6683;48.506;9.050;2022-09-12T11:54:56;1.60;;;1.50;;
13234;SDS011;6683;48.506;9.050;2022-09-12T11:58:07;1.55;;;1.45;;
13234;SDS011;6683;48.506;9.050;2022-09-12T12:01:11;1.70;;;1.60;;
13234;SDS011;6683;48.506;9.050;2022-09-12T12:04:21;1.52;;;1.50;;
13234;SDS011;6683;48.506;9.050;2022-09-12T12:07:30;1.35;;;1.33;;
13234;SDS011;6683;48.506;9.050;2022-09-12T12:10:42;1.45;;;1.17;;
13234;SDS011;6683;48.506;9.050;2022-09-12T12:13:53;1.65;;;1.40;;
13234;SDS011;6683;48.506;9.050;2022-09-12T12:16:59;1.55;;;1.50;;
13234;SDS011;6683;48.506;9.050;2022-09-12T12:20:02;1.30;;;1.25;;
13234;SDS011;6683;48.506;9.050;2022-09-12T12:23:19;1.60;;;1.50;;
13234;SDS011;6683;48.506;9.050;2022-09-12T12:26:41;1.38;;;1.27;;
13234;SDS011;6683;48.506;9.050;2022-09-12T12:29:57;1.10;;;1.10;;
13234;SDS011;6683;48.506;9.050;2022-09-12T12:32:59;1.30;;;1.30;;
13234;SDS011;6683;48.506;9.050;2022-09-12T12:36:03;1.20;;;1.20;;
13234;SDS011;6683;48.506;9.050;2022-09-12T12:46:39;1.10;;;1.10;;
13234;SDS011;6683;48.506;9.050;2022-09-12T12:49:41;1.15;;;1.13;;
13234;SDS011;6683;48.506;9.050;2022-09-12T12:52:53;1.13;;;1.13;;
13234;SDS011;6683;48.506;9.050;2022-09-12T12:55:59;1.10;;;1.10;;
13234;SDS011;6683;48.506;9.050;2022-09-12T12:59:02;0.93;;;0.93;;
13234;SDS011;6683;48.506;9.050;2022-09-12T13:02:18;1.17;;;1.10;;
13234;SDS011;6683;48.506;9.050;2022-09-12T13:05:26;0.80;;;0.80;;
13234;SDS011;6683;48.506;9.050;2022-09-12T13:08:31;1.10;;;1.10;;
13234;SDS011;6683;48.506;9.050;2022-09-12T13:11:37;1.02;;;0.90;;
13234;SDS011;6683;48.506;9.050;2022-09-12T13:14:48;0.98;;;0.98;;
13234;SDS011;6683;48.506;9.050;2022-09-12T13:17:58;1.20;;;1.10;;
13234;SDS011;6683;48.506;9.050;2022-09-12T13:21:06;1.20;;;1.10;;
13234;SDS011;6683;48.506;9.050;2022-09-12T13:24:13;1.58;;;1.13;;
13234;SDS011;6683;48.506;9.050;2022-09-12T13:27:18;0.98;;;0.98;;
13234;SDS011;6683;48.506;9.050;2022-09-12T13:30:24;1.20;;;0.98;;
13234;SDS011;6683;48.506;9.050;2022-09-12T13:33:30;0.90;;;0.90;;
13234;SDS011;6683;48.506;9.050;2022-09-12T13:36:44;1.10;;;1.00;;
13234;SDS011;6683;48.506;9.050;2022-09-12T13:40:26;1.67;;;0.90;;
13234;SDS011;6683;48.506;9.050;2022-09-12T13:43:36;1.27;;;1.20;;
13234;SDS011;6683;48.506;9.050;2022-09-12T13:46:41;1.00;;;1.00;;
13234;SDS011;6683;48.506;9.050;2022-09-12T13:49:46;1.40;;;1.30;;
13234;SDS011;6683;48.506;9.050;2022-09-12T13:52:51;0.90;;;0.90;;
13234;SDS011;6683;48.506;9.050;2022-09-12T13:55:56;1.15;;;1.10;;
13234;SDS011;6683;48.506;9.050;2022-09-12T13:59:00;1.05;;;0.95;;
13234;SDS011;6683;48.506;9.050;2022-09-12T14:02:14;1.80;;;1.10;;
13234;SDS011;6683;48.506;9.050;2022-09-12T14:05:22;1.95;;;1.13;;
13234;SDS011;6683;48.506;9.050;2022-09-12T14:08:25;1.00;;;0.90;;
13234;SDS011;6683;48.506;9.050;2022-09-12T14:11:28;1.08;;;0.90;;
13234;SDS011;6683;48.506;9.050;2022-09-12T14:14:33;1.02;;;0.93;;
13234;SDS011;6683;48.506;9.050;2022-09-12T14:17:39;2.20;;;0.90;;
13234;SDS011;6683;48.506;9.050;2022-09-12T14:20:52;1.25;;;1.00;;
13234;SDS011;6683;48.506;9.050;2022-09-12T14:24:00;0.90;;;0.90;;
13234;SDS011;6683;48.506;9.050;2022-09-12T14:27:04;0.80;;;0.80;;
13234;SDS011;6683;48.506;9.050;2022-09-12T14:30:07;1.30;;;0.85;;
13234;SDS011;6683;48.506;9.050;2022-09-12T14:33:22;0.93;;;0.90;;
13234;SDS011;6683;48.506;9.050;2022-09-12T14:36:28;0.90;;;0.88;;
13234;SDS011;6683;48.506;9.050;2022-09-12T14:39:36;0.70;;;0.70;;
13234;SDS011;6683;48.506;9.050;2022-09-12T14:42:41;0.98;;;0.77;;
13234;SDS011;6683;48.506;9.050;2022-09-12T14:45:43;1.50;;;0.80;;
13234;SDS011;6683;48.506;9.050;2022-09-12T14:48:55;1.13;;;1.13;;
13234;SDS011;6683;48.506;9.050;2022-09-12T14:52:04;0.80;;;0.80;;
13234;SDS011;6683;48.506;9.050;2022-09-12T14:55:19;1.58;;;0.85;;
13234;SDS011;6683;48.506;9.050;2022-09-12T14:58:28;0.80;;;0.80;;
13234;SDS011;6683;48.506;9.050;2022-09-12T15:01:31;0.82;;;0.80;;
13234;SDS011;6683;48.506;9.050;2022-09-12T15:04:36;1.38;;;1.00;;
13234;SDS011;6683;48.506;9.050;2022-09-12T15:07:41;0.80;;;0.80;;
13234;SDS011;6683;48.506;9.050;2022-09-12T15:10:52;0.77;;;0.77;;
13234;SDS011;6683;48.506;9.050;2022-09-12T15:13:55;0.75;;;0.75;;
13234;SDS011;6683;48.506;9.050;2022-09-12T15:16:57;1.33;;;1.13;;
13234;SDS011;6683;48.506;9.050;2022-09-12T15:20:00;0.82;;;0.82;;
13234;SDS011;6683;48.506;9.050;2022-09-12T15:23:06;0.80;;;0.80;;
13234;SDS011;6683;48.506;9.050;2022-09-12T15:26:19;0.82;;;0.80;;
13234;SDS011;6683;48.506;9.050;2022-09-12T15:29:25;0.70;;;0.70;;
13234;SDS011;6683;48.506;9.050;2022-09-12T15:32:28;0.73;;;0.73;;
13234;SDS011;6683;48.506;9.050;2022-09-12T15:35:31;0.90;;;0.90;;
13234;SDS011;6683;48.506;9.050;2022-09-12T15:38:35;0.80;;;0.80;;
13234;SDS011;6683;48.506;9.050;2022-09-12T15:41:37;1.05;;;1.02;;
13234;SDS011;6683;48.506;9.050;2022-09-12T15:44:40;1.33;;;0.88;;
13234;SDS011;6683;48.506;9.050;2022-09-12T15:47:43;0.70;;;0.70;;
13234;SDS011;6683;48.506;9.050;2022-09-12T15:50:45;0.80;;;0.80;;
13234;SDS011;6683;48.506;9.050;2022-09-12T15:53:49;0.77;;;0.77;;
13234;SDS011;6683;48.506;9.050;2022-09-12T15:56:52;0.80;;;0.73;;
13234;SDS011;6683;48.506;9.050;2022-09-12T15:59:54;0.60;;;0.60;;
13234;SDS011;6683;48.506;9.050;2022-09-12T16:02:57;0.73;;;0.73;;
13234;SDS011;6683;48.506;9.050;2022-09-12T16:06:00;0.60;;;0.60;;
13234;SDS011;6683;48.506;9.050;2022-09-12T16:09:05;0.80;;;0.60;;
13234;SDS011;6683;48.506;9.050;2022-09-12T16:12:07;0.82;;;0.82;;
13234;SDS011;6683;48.506;9.050;2022-09-12T16:15:10;0.80;;;0.73;;
13234;SDS011;6683;48.506;9.050;2022-09-12T16:18:15;0.60;;;0.60;;
13234;SDS011;6683;48.506;9.050;2022-09-12T16:21:18;0.82;;;0.80;;
13234;SDS011;6683;48.506;9.050;2022-09-12T16:24:22;0.52;;;0.52;;
13234;SDS011;6683;48.506;9.050;2022-09-12T16:27:24;0.80;;;0.80;;
13234;SDS011;6683;48.506;9.050;2022-09-12T16:30:26;0.57;;;0.57;;
13234;SDS011;6683;48.506;9.050;2022-09-12T16:33:29;0.68;;;0.63;;
13234;SDS011;6683;48.506;9.050;2022-09-12T16:36:32;0.93;;;0.90;;
13234;SDS011;6683;48.506;9.050;2022-09-12T16:39:36;1.88;;;0.70;;
13234;SDS011;6683;48.506;9.050;2022-09-12T16:42:38;0.82;;;0.82;;
13234;SDS011;6683;48.506;9.050;2022-09-12T16:45:41;0.70;;;0.70;;
13234;SDS011;6683;48.506;9.050;2022-09-12T16:48:44;0.73;;;0.73;;
13234;SDS011;6683;48.506;9.050;2022-09-12T16:51:48;1.60;;;0.90;;
13234;SDS011;6683;48.506;9.050;2022-09-12T16:54:52;2.17;;;1.98;;
13234;SDS011;6683;48.506;9.050;2022-09-12T16:57:55;1.90;;;1.40;;
13234;SDS011;6683;48.506;9.050;2022-09-12T17:00:58;1.00;;;1.00;;
13234;SDS011;6683;48.506;9.050;2022-09-12T17:04:01;0.85;;;0.85;;
13234;SDS011;6683;48.506;9.050;2022-09-12T17:07:03;1.42;;;0.90;;
13234;SDS011;6683;48.506;9.050;2022-09-12T17:10:08;1.08;;;0.98;;
13234;SDS011;6683;48.506;9.050;2022-09-12T17:13:10;1.08;;;0.80;;
13234;SDS011;6683;48.506;9.050;2022-09-12T17:16:13;1.10;;;0.93;;
13234;SDS011;6683;48.506;9.050;2022-09-12T17:19:17;1.15;;;1.00;;
13234;SDS011;6683;48.506;9.050;2022-09-12T17:22:25;1.00;;;0.90;;
13234;SDS011;6683;48.506;9.050;2022-09-12T17:25:33;0.88;;;0.88;;
13234;SDS011;6683;48.506;9.050;2022-09-12T17:28:35;0.80;;;0.80;;
13234;SDS011;6683;48.506;9.050;2022-09-12T17:31:38;0.82;;;0.80;;
13234;SDS011;6683;48.506;9.050;2022-09-12T17:34:41;1.52;;;0.90;;
13234;SDS011;6683;48.506;9.050;2022-09-12T17:37:43;2.58;;;0.90;;
13234;SDS011;6683;48.506;9.050;2022-09-12T17:40:48;0.90;;;0.75;;
13234;SDS011;6683;48.506;9.050;2022-09-12T17:43:51;2.47;;;0.95;;
13234;SDS011;6683;48.506;9.050;2022-09-12T17:46:56;1.30;;;0.90;;
13234;SDS011;6683;48.506;9.050;2022-09-12T17:49:58;1.38;;;0.93;;
13234;SDS011;6683;48.506;9.050;2022-09-12T17:53:01;0.88;;;0.88;;
13234;SDS011;6683;48.506;9.050;2022-09-12T17:56:04;1.13;;;0.80;;
13234;SDS011;6683;48.506;9.050;2022-09-12T17:59:15;3.47;;;1.05;;
13234;SDS011;6683;48.506;9.050;2022-09-12T18:02:20;2.33;;;0.90;;
13234;SDS011;6683;48.506;9.050;2022-09-12T18:05:21;2.25;;;1.20;;
13234;SDS011;6683;48.506;9.050;2022-09-12T18:08:23;1.85;;;0.82;;
13234;SDS011;6683;48.506;9.050;2022-09-12T18:11:27;1.00;;;0.80;;
13234;SDS011;6683;48.506;9.050;2022-09-12T18:14:30;1.02;;;0.70;;
13234;SDS011;6683;48.506;9.050;2022-09-12T18:17:32;1.35;;;1.08;;
13234;SDS011;6683;48.506;9.050;2022-09-12T18:20:35;0.80;;;0.80;;
13234;SDS011;6683;48.506;9.050;2022-09-12T18:23:37;1.40;;;0.70;;
13234;SDS011;6683;48.506;9.050;2022-09-12T18:26:41;1.37;;;0.97;;
13234;SDS011;6683;48.506;9.050;2022-09-12T18:29:44;1.73;;;0.87;;
13234;SDS011;6683;48.506;9.050;2022-09-12T18:32:46;2.20;;;0.70;;
13234;SDS011;6683;48.506;9.050;2022-09-12T18:35:49;2.80;;;1.20;;
13234;SDS011;6683;48.506;9.050;2022-09-12T18:38:51;0.97;;;0.83;;
13234;SDS011;6683;48.506;9.050;2022-09-12T18:41:55;0.70;;;0.70;;
13234;SDS011;6683;48.506;9.050;2022-09-12T18:44:58;1.43;;;0.70;;
13234;SDS011;6683;48.506;9.050;2022-09-12T18:48:01;1.50;;;0.90;;
13234;SDS011;6683;48.506;9.050;2022-09-12T18:51:06;1.47;;;0.73;;
13234;SDS011;6683;48.506;9.050;2022-09-12T18:54:11;0.60;;;0.60;;
13234;SDS011;6683;48.506;9.050;2022-09-12T18:57:15;1.53;;;0.70;;
13234;SDS011;6683;48.506;9.050;2022-09-12T19:00:18;1.63;;;0.70;;
13234;SDS011;6683;48.506;9.050;2022-09-12T19:03:21;1.13;;;0.73;;
13234;SDS011;6683;48.506;9.050;2022-09-12T19:06:24;2.23;;;0.97;;
13234;SDS011;6683;48.506;9.050;2022-09-12T19:09:29;1.87;;;1.00;;
13234;SDS011;6683;48.506;9.050;2022-09-12T19:12:34;1.13;;;1.03;;
13234;SDS011;6683;48.506;9.050;2022-09-12T19:15:38;1.53;;;1.20;;